Time;durP1;ratioP1;P1;durP2;ratioP2;P2;SDS_P1;SDS_P2;PMS_P1;PMS_P2;Temp;Humidity;BMP_temperature;BMP_pressure;BME280_temperature;BME280_humidity;BME280_pressure;Samples;Min_cycle;Max_cycle;Signal;HPM_P1;HPM_P2
2021/06/10 00:00:45;;;;;;;1.63;1.27;;;19.70;55.50;;;;;;5076103;28;20472;-73
2021/06/10 00:03:11;;;;;;;2.00;1.35;;;19.60;55.50;;;;;;5074900;28;20020;-73
2021/06/10 00:05:38;;;;;;;1.40;1.20;;;19.60;55.60;;;;;;5074675;28;20159;-73
2021/06/10 00:08:04;;;;;;;1.20;1.10;;;19.60;55.80;;;;;;5076100;28;20518;-74
2021/06/10 00:10:30;;;;;;;1.38;1.27;;;19.60;55.90;;;;;;5074803;28;20115;-73
2021/06/10 00:12:57;;;;;;;1.77;1.20;;;19.60;56.00;;;;;;5074801;28;20025;-75
2021/06/10 00:15:26;;;;;;;1.50;1.33;;;19.50;56.10;;;;;;5074741;28;20381;-75
2021/06/10 00:17:52;;;;;;;1.50;1.40;;;19.50;56.30;;;;;;5074637;28;20094;-75
2021/06/10 00:20:21;;;;;;;1.20;1.10;;;19.50;56.40;;;;;;5074836;28;20497;-75
2021/06/10 00:22:48;;;;;;;1.25;1.10;;;19.50;56.50;;;;;;5074519;28;20070;-77
2021/06/10 00:25:14;;;;;;;1.38;1.17;;;19.40;56.60;;;;;;5075740;28;20024;-74
2021/06/10 00:27:41;;;;;;;1.42;1.20;;;19.40;56.60;;;;;;5075875;28;20032;-74
2021/06/10 00:30:09;;;;;;;2.03;1.33;;;19.40;56.70;;;;;;5074503;28;20028;-74
2021/06/10 00:32:35;;;;;;;1.48;1.27;;;19.40;56.80;;;;;;5075674;28;20032;-74
2021/06/10 00:35:00;;;;;;;1.45;1.30;;;19.30;56.90;;;;;;5075636;28;20099;-74
2021/06/10 00:37:26;;;;;;;1.10;1.00;;;19.40;57.00;;;;;;5075540;28;20490;-74
2021/06/10 00:39:52;;;;;;;3.05;1.50;;;19.30;57.10;;;;;;5074194;28;20024;-75
2021/06/10 00:42:17;;;;;;;1.30;1.10;;;19.30;57.10;;;;;;5073003;28;20027;-74
2021/06/10 00:44:44;;;;;;;1.08;0.98;;;19.30;57.20;;;;;;5074167;28;20084;-74
2021/06/10 00:47:09;;;;;;;1.35;1.10;;;19.30;57.20;;;;;;5073994;28;20024;-75
2021/06/10 00:49:36;;;;;;;2.97;1.20;;;19.30;57.20;;;;;;5073946;28;20506;-74
2021/06/10 00:52:03;;;;;;;1.60;1.30;;;19.20;57.60;;;;;;5074065;28;20021;-74
2021/06/10 00:54:29;;;;;;;2.25;1.10;;;19.20;57.00;;;;;;5073906;28;20082;-75
2021/06/10 00:56:55;;;;;;;1.63;1.30;;;19.20;57.00;;;;;;5073922;28;20414;-74
2021/06/10 00:59:21;;;;;;;1.33;1.23;;;19.10;57.00;;;;;;5073856;28;20021;-74
2021/06/10 01:01:46;;;;;;;1.95;1.58;;;19.10;57.10;;;;;;5073823;28;20025;-73
2021/06/10 01:04:13;;;;;;;2.83;1.30;;;19.10;57.10;;;;;;5073659;28;20436;-73
2021/06/10 01:06:52;;;;;;;1.42;1.20;;;19.10;57.10;;;;;;5074758;28;20044;-72
2021/06/10 01:09:35;;;;;;;1.38;1.10;;;19.10;57.00;;;;;;5073487;28;20095;-74
2021/06/10 01:12:18;;;;;;;0.98;0.88;;;19.00;56.70;;;;;;5074811;28;20082;-73
2021/06/10 01:15:06;;;;;;;1.38;1.00;;;19.00;56.40;;;;;;5070249;28;20031;-73
2021/06/10 01:17:40;;;;;;;1.92;0.95;;;19.00;56.40;;;;;;5074616;28;20031;-73
2021/06/10 01:24:00;;;;;;;0.90;0.90;;;18.90;55.90;;;;;;5074710;28;20507;-73
2021/06/10 01:26:33;;;;;;;1.35;1.10;;;18.80;55.80;;;;;;5051989;28;20029;-73
2021/06/10 01:29:01;;;;;;;1.67;1.02;;;18.80;55.70;;;;;;5074449;28;20031;-73
2021/06/10 01:31:27;;;;;;;0.95;0.95;;;18.80;55.70;;;;;;5073374;28;20163;-73
2021/06/10 01:33:57;;;;;;;2.72;1.10;;;18.70;55.60;;;;;;5072965;28;20020;-73
2021/06/10 01:36:28;;;;;;;2.65;1.00;;;18.80;55.70;;;;;;5072958;28;20024;-72
2021/06/10 01:38:57;;;;;;;1.13;0.80;;;18.80;55.80;;;;;;5074173;28;20032;-73
2021/06/10 01:41:25;;;;;;;1.90;1.23;;;18.80;55.80;;;;;;5074185;28;20016;-73
2021/06/10 01:43:52;;;;;;;2.38;1.20;;;18.70;56.00;;;;;;5074205;28;20094;-73
2021/06/10 01:46:23;;;;;;;1.52;1.05;;;18.70;56.20;;;;;;5072865;28;20021;-74
2021/06/10 01:48:49;;;;;;;1.10;1.00;;;18.70;56.60;;;;;;5072713;28;20013;-72
2021/06/10 01:51:21;;;;;;;1.38;1.20;;;18.70;56.90;;;;;;5072734;28;20021;-74
2021/06/10 01:53:49;;;;;;;1.17;1.08;;;18.60;57.20;;;;;;5072514;28;20027;-74
2021/06/10 01:56:16;;;;;;;1.17;1.10;;;18.60;57.40;;;;;;5073919;28;20079;-74
2021/06/10 01:58:44;;;;;;;1.50;1.13;;;18.60;57.70;;;;;;5073673;28;20487;-74
2021/06/10 02:01:12;;;;;;;1.95;1.20;;;18.50;57.90;;;;;;5072500;28;20026;-74
2021/06/10 02:03:38;;;;;;;1.40;1.30;;;18.50;58.10;;;;;;5073872;28;20027;-74
2021/06/10 02:06:08;;;;;;;2.10;1.20;;;18.40;58.30;;;;;;5072363;28;20040;-72
2021/06/10 02:08:34;;;;;;;1.27;1.17;;;18.40;58.50;;;;;;5072457;28;20442;-72
2021/06/10 02:11:01;;;;;;;1.17;1.08;;;18.30;58.60;;;;;;5073741;28;20016;-74
2021/06/10 02:13:29;;;;;;;1.30;1.10;;;18.30;58.70;;;;;;5072285;28;20044;-73
2021/06/10 02:15:58;;;;;;;1.40;1.30;;;18.30;58.90;;;;;;5072452;28;20083;-73
2021/06/10 02:18:25;;;;;;;2.47;1.10;;;18.30;59.00;;;;;;5072288;28;20111;-72
2021/06/10 02:20:50;;;;;;;0.80;0.80;;;18.20;59.10;;;;;;5073525;28;20032;-72
2021/06/10 02:23:16;;;;;;;1.98;1.05;;;18.20;59.20;;;;;;5072129;28;20456;-72
2021/06/10 02:25:42;;;;;;;1.35;1.25;;;18.20;59.30;;;;;;5073353;28;20027;-72
2021/06/10 02:28:07;;;;;;;1.15;1.05;;;18.10;59.30;;;;;;5071994;28;20098;-75
2021/06/10 02:30:34;;;;;;;1.40;1.25;;;18.10;59.40;;;;;;5073252;28;20074;-72
2021/06/10 02:33:00;;;;;;;1.33;1.23;;;18.10;59.50;;;;;;5071860;28;20039;-73
2021/06/10 02:35:26;;;;;;;1.38;1.13;;;18.10;59.60;;;;;;5073256;28;20028;-73
2021/06/10 02:37:58;;;;;;;1.20;1.10;;;18.00;59.50;;;;;;5071905;28;20078;-73
2021/06/10 02:40:35;;;;;;;1.83;1.23;;;18.00;59.60;;;;;;5073035;28;20029;-73
2021/06/10 02:43:05;;;;;;;1.40;1.00;;;18.00;59.70;;;;;;5071798;28;20099;-73
2021/06/10 02:45:32;;;;;;;1.13;1.00;;;17.90;59.70;;;;;;5073016;28;20048;-73
2021/06/10 02:48:00;;;;;;;1.80;1.17;;;17.80;59.70;;;;;;5071951;28;20028;-73
2021/06/10 02:50:28;;;;;;;1.45;1.10;;;17.80;59.90;;;;;;5071858;28;20021;-73
2021/06/10 02:52:56;;;;;;;1.15;1.05;;;17.80;60.00;;;;;;5073112;28;20031;-73
2021/06/10 02:55:23;;;;;;;1.50;1.38;;;17.80;60.00;;;;;;5071696;28;20039;-72
2021/06/10 02:57:54;;;;;;;1.15;1.13;;;17.70;60.10;;;;;;5071691;28;20051;-73
2021/06/10 03:00:22;;;;;;;2.65;1.23;;;17.70;60.80;;;;;;5072769;28;20028;-72
2021/06/10 03:02:52;;;;;;;2.17;1.20;;;17.70;60.30;;;;;;5071692;28;20013;-74
2021/06/10 03:05:21;;;;;;;1.48;1.30;;;17.60;60.40;;;;;;5072281;28;20059;-72
2021/06/10 03:07:47;;;;;;;1.98;1.40;;;17.70;60.50;;;;;;5071459;28;20388;-73
2021/06/10 03:10:13;;;;;;;1.33;1.20;;;17.70;60.60;;;;;;5071471;28;20479;-72
2021/06/10 03:12:41;;;;;;;1.50;1.40;;;17.70;60.70;;;;;;5071647;28;20503;-73
2021/06/10 03:15:09;;;;;;;2.08;1.48;;;17.70;60.70;;;;;;5072734;28;20035;-73
2021/06/10 03:17:37;;;;;;;1.40;1.30;;;17.70;60.80;;;;;;5072741;28;20381;-73
2021/06/10 03:20:08;;;;;;;2.25;1.52;;;17.70;60.90;;;;;;5072657;28;20032;-73
2021/06/10 03:22:34;;;;;;;1.70;1.50;;;17.60;61.10;;;;;;5065099;28;20037;-72
2021/06/10 03:25:01;;;;;;;1.52;1.42;;;17.60;61.20;;;;;;5071269;28;20094;-73
2021/06/10 03:27:29;;;;;;;1.70;1.60;;;17.60;61.40;;;;;;5071379;28;20488;-72
2021/06/10 03:29:55;;;;;;;1.80;1.63;;;17.60;61.60;;;;;;5071273;28;20025;-72
2021/06/10 03:32:21;;;;;;;2.05;1.40;;;17.60;61.70;;;;;;5071355;28;20078;-72
2021/06/10 03:34:47;;;;;;;1.50;1.40;;;17.60;61.80;;;;;;5071269;28;20032;-72
2021/06/10 03:37:15;;;;;;;1.83;1.70;;;17.60;62.00;;;;;;5072533;28;20029;-73
2021/06/10 03:39:42;;;;;;;2.03;1.60;;;17.60;62.20;;;;;;5071220;28;20051;-73
2021/06/10 03:42:08;;;;;;;2.08;1.73;;;17.50;62.40;;;;;;5072423;28;20096;-73
2021/06/10 03:44:34;;;;;;;2.10;1.65;;;17.50;62.60;;;;;;5071057;28;20029;-73
2021/06/10 03:47:01;;;;;;;5.60;1.80;;;17.50;62.80;;;;;;5072426;28;20027;-74
2021/06/10 03:49:27;;;;;;;1.95;1.42;;;17.40;62.90;;;;;;5071016;28;20446;-73
2021/06/10 03:51:54;;;;;;;2.22;1.73;;;17.40;63.10;;;;;;5071187;28;20028;-73
2021/06/10 03:54:21;;;;;;;1.95;1.80;;;17.30;63.10;;;;;;5072420;28;20028;-73
2021/06/10 03:56:47;;;;;;;1.83;1.73;;;17.30;63.30;;;;;;5071227;28;20130;-73
2021/06/10 03:59:14;;;;;;;2.67;1.80;;;17.30;63.40;;;;;;5072241;28;20034;-72
2021/06/10 04:01:40;;;;;;;3.10;2.17;;;17.30;63.50;;;;;;5072325;28;20024;-73
2021/06/10 04:04:06;;;;;;;3.22;2.05;;;17.40;63.60;;;;;;5071089;28;20036;-73
2021/06/10 04:06:34;;;;;;;2.58;1.95;;;17.40;63.60;;;;;;5070785;28;20036;-73
2021/06/10 04:09:02;;;;;;;2.58;2.20;;;17.40;63.60;;;;;;5070996;28;20035;-73
2021/06/10 04:11:29;;;;;;;2.10;1.80;;;17.50;63.60;;;;;;5072309;28;20033;-73
2021/06/10 04:13:54;;;;;;;2.70;2.20;;;17.50;63.70;;;;;;5072343;28;20102;-73
2021/06/10 04:16:20;;;;;;;2.78;2.13;;;17.50;63.60;;;;;;5072944;28;20471;-73
2021/06/10 04:18:46;;;;;;;3.33;2.13;;;17.50;63.60;;;;;;5074452;28;20034;-73
2021/06/10 04:21:11;;;;;;;2.60;2.40;;;17.50;63.60;;;;;;5074436;28;20115;-73
2021/06/10 04:23:37;;;;;;;3.72;2.60;;;17.60;63.70;;;;;;5075805;28;20031;-72
2021/06/10 04:26:03;;;;;;;3.55;2.65;;;17.60;63.70;;;;;;5074659;28;20017;-73
2021/06/10 04:28:29;;;;;;;4.88;3.30;;;17.60;63.60;;;;;;5074436;28;20021;-73
2021/06/10 04:30:55;;;;;;;3.65;3.10;;;17.70;63.60;;;;;;5075931;28;20071;-73
2021/06/10 04:33:21;;;;;;;3.70;3.30;;;17.70;63.60;;;;;;5074310;28;20024;-73
2021/06/10 04:35:46;;;;;;;3.60;3.08;;;17.80;63.50;;;;;;5075635;28;20029;-73
2021/06/10 04:38:14;;;;;;;4.72;3.45;;;17.80;63.50;;;;;;5074316;28;20032;-73
2021/06/10 04:40:41;;;;;;;3.75;3.40;;;17.90;63.50;;;;;;5074137;28;20029;-73
2021/06/10 04:43:07;;;;;;;3.97;3.33;;;17.90;63.50;;;;;;5075364;28;20020;-73
2021/06/10 04:45:33;;;;;;;4.90;3.38;;;17.90;63.50;;;;;;5074079;28;20396;-74
2021/06/10 04:47:59;;;;;;;3.90;3.50;;;17.90;63.50;;;;;;5075336;28;20108;-74
2021/06/10 04:50:26;;;;;;;4.05;3.60;;;18.00;63.50;;;;;;5074072;28;20055;-73
2021/06/10 04:52:52;;;;;;;4.60;3.25;;;18.00;63.60;;;;;;5075353;28;20031;-73
2021/06/10 04:55:19;;;;;;;4.45;3.92;;;18.00;63.60;;;;;;5073983;28;20115;-73
2021/06/10 04:57:45;;;;;;;4.60;3.67;;;18.00;63.60;;;;;;5075175;28;20024;-74
2021/06/10 05:00:12;;;;;;;4.32;3.92;;;18.10;63.70;;;;;;5074956;28;20035;-72
2021/06/10 05:02:37;;;;;;;3.80;3.38;;;18.10;63.60;;;;;;5075249;28;20432;-69
2021/06/10 05:05:05;;;;;;;5.50;4.03;;;18.20;63.60;;;;;;5075168;28;20060;-69
2021/06/10 05:07:31;;;;;;;4.53;3.65;;;18.40;63.40;;;;;;5075114;28;20051;-69
2021/06/10 05:09:56;;;;;;;4.72;3.85;;;18.50;63.10;;;;;;5073827;28;20028;-69
2021/06/10 05:12:22;;;;;;;5.22;3.95;;;18.60;62.90;;;;;;5073778;28;20035;-69
2021/06/10 05:14:47;;;;;;;6.47;4.10;;;18.70;62.70;;;;;;5075237;28;20103;-69
2021/06/10 05:17:13;;;;;;;4.65;4.13;;;18.80;62.60;;;;;;5074945;28;20024;-69
2021/06/10 05:19:39;;;;;;;7.10;5.65;;;18.90;62.50;;;;;;5074903;28;20036;-69
2021/06/10 05:22:05;;;;;;;6.43;5.05;;;19.00;62.50;;;;;;5073516;28;20028;-69
2021/06/10 05:24:30;;;;;;;4.95;4.45;;;19.10;62.40;;;;;;5073542;28;20031;-69
2021/06/10 05:26:56;;;;;;;5.25;4.22;;;19.10;62.30;;;;;;5073007;28;20024;-69
2021/06/10 05:29:22;;;;;;;4.65;4.15;;;19.20;62.20;;;;;;5073310;28;20040;-69
2021/06/10 05:31:48;;;;;;;5.07;4.07;;;19.20;62.10;;;;;;5074718;28;20028;-69
2021/06/10 05:34:14;;;;;;;8.85;4.20;;;19.30;62.40;;;;;;5073256;28;20025;-70
2021/06/10 05:36:40;;;;;;;6.10;4.45;;;19.30;62.00;;;;;;5076411;28;20039;-70
2021/06/10 05:39:06;;;;;;;5.20;3.70;;;19.30;62.00;;;;;;5074477;28;20037;-69
2021/06/10 05:41:32;;;;;;;4.82;4.00;;;19.40;62.00;;;;;;5073364;28;20021;-69
2021/06/10 05:43:58;;;;;;;5.93;4.03;;;19.40;62.00;;;;;;5074473;28;20098;-70
2021/06/10 05:46:24;;;;;;;5.75;4.25;;;19.40;62.00;;;;;;5073013;28;20021;-70
2021/06/10 05:48:50;;;;;;;4.60;4.07;;;19.40;62.00;;;;;;5073188;28;20024;-70
2021/06/10 05:51:15;;;;;;;5.72;4.43;;;19.50;62.00;;;;;;5074222;28;20490;-70
2021/06/10 05:53:41;;;;;;;4.03;3.63;;;19.50;62.00;;;;;;5074166;28;20055;-70
2021/06/10 05:56:07;;;;;;;4.35;3.78;;;19.50;62.00;;;;;;5073977;28;20021;-69
2021/06/10 05:58:33;;;;;;;4.35;3.95;;;19.60;62.00;;;;;;5074023;28;20040;-72
2021/06/10 06:00:59;;;;;;;4.75;4.07;;;19.60;62.00;;;;;;5072607;28;20063;-72
2021/06/10 06:03:30;;;;;;;5.05;4.30;;;19.60;62.00;;;;;;5073310;28;20129;-71
2021/06/10 06:05:59;;;;;;;4.80;4.28;;;19.60;62.10;;;;;;5073865;28;20024;-72
2021/06/10 06:08:24;;;;;;;6.35;4.78;;;19.70;62.20;;;;;;5072524;28;20114;-72
2021/06/10 06:10:52;;;;;;;6.50;4.55;;;19.60;62.30;;;;;;5073856;28;20487;-71
2021/06/10 06:13:33;;;;;;;5.07;4.53;;;19.60;62.30;;;;;;5073844;28;20024;-72
2021/06/10 06:16:03;;;;;;;4.80;4.30;;;19.70;62.50;;;;;;5072592;28;20369;-72
2021/06/10 06:18:29;;;;;;;4.75;4.32;;;19.70;62.50;;;;;;5073744;28;20032;-72
2021/06/10 06:20:55;;;;;;;6.00;4.50;;;19.70;62.50;;;;;;5072265;28;20480;-73
2021/06/10 06:23:20;;;;;;;5.55;4.50;;;19.70;62.60;;;;;;5073894;28;20502;-74
2021/06/10 06:25:46;;;;;;;6.95;5.07;;;19.70;62.60;;;;;;5072312;28;20095;-72
2021/06/10 06:28:12;;;;;;;6.65;4.88;;;19.80;62.70;;;;;;5072340;28;20025;-72
2021/06/10 06:30:37;;;;;;;8.55;6.00;;;19.80;62.80;;;;;;5072356;28;20044;-72
2021/06/10 06:33:03;;;;;;;5.93;5.32;;;19.90;62.90;;;;;;5072210;28;20486;-73
2021/06/10 06:35:29;;;;;;;6.30;5.68;;;19.90;63.00;;;;;;5073376;28;20500;-73
2021/06/10 06:37:54;;;;;;;5.22;4.63;;;19.90;63.00;;;;;;5073693;28;20381;-72
2021/06/10 06:40:25;;;;;;;6.22;5.03;;;19.90;63.00;;;;;;5071141;28;20383;-72
2021/06/10 06:42:51;;;;;;;7.28;5.68;;;19.90;62.90;;;;;;5072001;28;20082;-73
2021/06/10 06:45:17;;;;;;;5.28;4.55;;;19.90;63.10;;;;;;5072022;28;20063;-72
2021/06/10 06:47:43;;;;;;;6.05;5.45;;;20.00;63.10;;;;;;5072044;28;20547;-72
2021/06/10 06:50:09;;;;;;;6.05;5.20;;;20.00;63.20;;;;;;5071889;28;20099;-72
2021/06/10 06:52:36;;;;;;;6.05;5.45;;;20.10;63.20;;;;;;5071841;28;20028;-72
2021/06/10 06:55:02;;;;;;;6.03;5.45;;;20.10;63.10;;;;;;5071852;28;20484;-72
2021/06/10 06:57:29;;;;;;;6.30;5.57;;;20.10;63.10;;;;;;5073067;28;20114;-72
2021/06/10 06:59:55;;;;;;;6.10;5.43;;;20.20;63.30;;;;;;5072981;28;20024;-72
2021/06/10 07:02:21;;;;;;;6.70;5.53;;;20.20;63.30;;;;;;5071731;28;20025;-72
2021/06/10 07:04:46;;;;;;;5.85;5.03;;;20.20;63.30;;;;;;5071775;28;20020;-72
2021/06/10 07:07:12;;;;;;;8.35;5.47;;;20.30;63.20;;;;;;5071668;28;20087;-72
2021/06/10 07:09:38;;;;;;;6.45;5.00;;;20.40;63.20;;;;;;5072710;28;20102;-72
2021/06/10 07:12:04;;;;;;;6.22;4.90;;;20.40;63.10;;;;;;5071569;28;20085;-73
2021/06/10 07:14:30;;;;;;;5.85;5.25;;;20.50;63.10;;;;;;5071507;28;20082;-72
2021/06/10 07:16:55;;;;;;;6.05;5.35;;;20.50;63.10;;;;;;5073008;28;20033;-72
2021/06/10 07:19:21;;;;;;;6.43;5.70;;;20.60;63.20;;;;;;5071453;28;20044;-72
2021/06/10 07:21:49;;;;;;;8.55;6.20;;;20.60;63.10;;;;;;5072999;28;20024;-72
2021/06/10 07:27:37;;;;;;;5.72;4.30;;;20.70;62.80;;;;;;5073277;28;20023;-73
2021/06/10 07:30:12;;;;;;;5.38;4.88;;;20.80;62.60;;;;;;5071459;28;20115;-72
2021/06/10 07:32:38;;;;;;;6.18;5.10;;;20.80;62.40;;;;;;5071404;28;20027;-72
2021/06/10 07:35:05;;;;;;;5.07;4.55;;;20.90;62.10;;;;;;5071527;28;20028;-72
2021/06/10 07:40:52;;;;;;;4.00;3.40;;;21.10;60.10;;;;;;5072774;28;20519;-72
2021/06/10 07:43:18;;;;;;;3.83;3.30;;;21.10;59.80;;;;;;5071450;28;20024;-72
2021/06/10 07:45:44;;;;;;;4.32;3.35;;;21.20;59.20;;;;;;5071358;28;20025;-72
2021/06/10 07:48:10;;;;;;;2.95;2.60;;;21.20;58.60;;;;;;5071397;28;20369;-72
2021/06/10 07:50:35;;;;;;;3.10;2.70;;;21.30;58.20;;;;;;5073594;28;20456;-72
2021/06/10 07:53:01;;;;;;;3.72;3.35;;;21.30;57.70;;;;;;5075153;28;20083;-72
2021/06/10 07:55:27;;;;;;;6.75;3.05;;;21.40;57.20;;;;;;5075278;28;20369;-72
2021/06/10 07:57:55;;;;;;;4.20;2.92;;;21.40;56.80;;;;;;5075252;28;20036;-73
2021/06/10 08:00:21;;;;;;;3.72;2.72;;;21.50;56.20;;;;;;5076170;28;20025;-72
2021/06/10 08:02:47;;;;;;;2.97;2.55;;;21.60;56.60;;;;;;5076373;28;20035;-72
2021/06/10 08:05:14;;;;;;;2.60;2.40;;;21.60;55.50;;;;;;5076343;28;20035;-73
2021/06/10 08:07:42;;;;;;;2.92;2.28;;;21.70;54.70;;;;;;5074851;28;20561;-72
2021/06/10 08:10:12;;;;;;;2.00;1.80;;;21.70;54.10;;;;;;5074880;28;20085;-72
2021/06/10 08:12:39;;;;;;;3.30;2.10;;;21.80;53.80;;;;;;5076338;28;20034;-72
2021/06/10 08:15:06;;;;;;;3.75;2.55;;;21.90;53.60;;;;;;5075304;28;20032;-72
2021/06/10 08:17:35;;;;;;;2.90;2.15;;;21.90;53.00;;;;;;5076065;28;20039;-73
2021/06/10 08:20:05;;;;;;;2.78;2.25;;;21.90;52.90;;;;;;5074662;28;20053;-73
2021/06/10 08:22:31;;;;;;;3.97;2.47;;;22.00;52.70;;;;;;5076079;28;20028;-73
2021/06/10 08:24:56;;;;;;;2.97;2.10;;;22.10;52.80;;;;;;5074601;28;20024;-72
2021/06/10 08:27:22;;;;;;;3.58;2.70;;;22.10;52.70;;;;;;5074605;28;20550;-73
2021/06/10 08:29:48;;;;;;;2.50;2.30;;;22.20;52.50;;;;;;5074719;28;20039;-72
2021/06/10 08:32:14;;;;;;;4.47;3.30;;;22.20;52.50;;;;;;5074478;28;20025;-72
2021/06/10 08:34:39;;;;;;;5.25;3.08;;;22.30;52.40;;;;;;5074358;28;20068;-72
2021/06/10 08:37:05;;;;;;;4.05;3.35;;;22.30;52.50;;;;;;5074462;28;20476;-72
2021/06/10 08:39:33;;;;;;;3.95;3.55;;;22.30;52.60;;;;;;5075596;28;20039;-73
2021/06/10 08:41:58;;;;;;;3.75;3.13;;;22.40;52.60;;;;;;5074364;28;20416;-72
2021/06/10 08:44:25;;;;;;;5.53;3.72;;;22.40;52.40;;;;;;5075453;28;20086;-72
2021/06/10 08:46:51;;;;;;;4.88;2.88;;;22.50;52.30;;;;;;5074246;28;20060;-73
2021/06/10 08:49:18;;;;;;;2.45;2.25;;;22.50;52.30;;;;;;5074239;28;20020;-72
2021/06/10 08:51:44;;;;;;;2.65;2.45;;;22.50;52.30;;;;;;5075443;28;20028;-72
2021/06/10 08:54:11;;;;;;;4.60;2.78;;;22.60;52.30;;;;;;5075359;28;20028;-72
2021/06/10 08:56:37;;;;;;;2.88;2.60;;;22.60;52.30;;;;;;5075340;28;20091;-73
2021/06/10 08:59:03;;;;;;;4.25;3.70;;;22.70;52.50;;;;;;5075165;28;20028;-73
2021/06/10 09:01:30;;;;;;;3.95;2.90;;;22.70;52.50;;;;;;5073628;28;20546;-73
2021/06/10 09:03:55;;;;;;;3.60;2.92;;;22.80;52.60;;;;;;5073255;28;20391;-73
2021/06/10 09:06:21;;;;;;;3.05;2.75;;;22.80;52.60;;;;;;5074110;28;20115;-73
2021/06/10 09:08:49;;;;;;;3.72;2.60;;;22.80;52.60;;;;;;5073879;28;20075;-72
2021/06/10 09:11:16;;;;;;;3.47;3.17;;;22.90;52.60;;;;;;5075107;28;20082;-73
2021/06/10 09:13:55;;;;;;;4.72;2.90;;;23.00;52.50;;;;;;5075120;28;20033;-73
2021/06/10 09:16:35;;;;;;;4.65;2.70;;;23.00;52.50;;;;;;5073681;28;20082;-72
2021/06/10 09:19:09;;;;;;;2.63;2.22;;;23.10;52.40;;;;;;5073874;28;20032;-73
2021/06/10 09:21:42;;;;;;;5.07;3.25;;;23.20;52.40;;;;;;5073626;28;20017;-73
2021/06/10 09:24:19;;;;;;;4.15;2.90;;;23.20;52.00;;;;;;5073489;28;20071;-72
2021/06/10 09:26:46;;;;;;;3.55;3.17;;;23.30;52.00;;;;;;5073501;28;20029;-72
2021/06/10 09:29:12;;;;;;;3.40;3.00;;;23.30;51.90;;;;;;5073427;28;20024;-73
2021/06/10 09:31:39;;;;;;;2.72;2.53;;;23.40;51.90;;;;;;5073393;28;20035;-73
2021/06/10 09:34:14;;;;;;;6.03;3.50;;;23.40;51.90;;;;;;5073573;28;20127;-73
2021/06/10 09:36:46;;;;;;;2.95;2.65;;;23.40;51.50;;;;;;5073287;28;20032;-72
2021/06/10 09:39:17;;;;;;;2.50;2.20;;;23.40;51.40;;;;;;5074396;28;20029;-72
2021/06/10 09:42:04;;;;;;;3.10;2.75;;;23.50;51.40;;;;;;5074598;28;20476;-72
2021/06/10 09:44:41;;;;;;;3.33;3.03;;;23.50;51.40;;;;;;5073174;28;20116;-73
2021/06/10 09:47:08;;;;;;;2.85;2.63;;;23.60;51.20;;;;;;5073015;28;20035;-72
2021/06/10 09:49:34;;;;;;;3.72;2.67;;;23.60;51.10;;;;;;5074359;28;20059;-73
2021/06/10 09:52:01;;;;;;;2.67;2.47;;;23.70;51.10;;;;;;5074315;28;20052;-73
2021/06/10 09:54:52;;;;;;;3.53;2.95;;;23.70;51.10;;;;;;5072953;28;20044;-73
2021/06/10 09:57:18;;;;;;;3.78;2.58;;;23.80;51.10;;;;;;5073260;28;20028;-73
2021/06/10 09:59:54;;;;;;;3.63;3.33;;;23.80;51.10;;;;;;5072933;28;20066;-72
2021/06/10 10:02:27;;;;;;;3.92;2.92;;;23.80;50.90;;;;;;5074147;28;20559;-73
2021/06/10 10:04:55;;;;;;;3.47;3.08;;;23.80;50.80;;;;;;5073082;28;20387;-73
2021/06/10 10:07:22;;;;;;;3.83;2.70;;;23.90;50.80;;;;;;5072652;28;20507;-73
2021/06/10 10:09:49;;;;;;;3.25;2.95;;;23.90;50.90;;;;;;5056142;28;20075;-73
2021/06/10 10:12:15;;;;;;;3.47;2.63;;;24.00;50.90;;;;;;5056006;28;20535;-73
2021/06/10 10:14:41;;;;;;;4.15;2.95;;;24.00;50.80;;;;;;5055891;28;20067;-73
2021/06/10 10:17:07;;;;;;;3.60;3.17;;;24.10;50.70;;;;;;5056047;28;20031;-73
2021/06/10 10:19:32;;;;;;;3.83;2.95;;;24.10;50.60;;;;;;5055867;28;20437;-71
2021/06/10 10:21:58;;;;;;;3.70;3.40;;;24.20;50.60;;;;;;5055873;28;20052;-71
2021/06/10 10:24:24;;;;;;;3.10;2.80;;;24.20;50.50;;;;;;5055659;28;20020;-72
2021/06/10 10:26:50;;;;;;;4.38;3.05;;;24.20;50.50;;;;;;5055703;28;20119;-72
2021/06/10 10:32:41;;;;;;;3.40;3.10;;;24.30;50.20;;;;;;5073933;28;20120;-71
2021/06/10 10:35:22;;;;;;;3.55;3.22;;;24.30;50.20;;;;;;5073425;28;20028;-72
2021/06/10 10:37:48;;;;;;;3.30;2.70;;;24.30;50.20;;;;;;5055495;28;20123;-71
2021/06/10 10:40:28;;;;;;;4.30;3.50;;;24.40;50.30;;;;;;5055164;28;20024;-72
2021/06/10 10:43:14;;;;;;;3.47;2.80;;;24.50;50.20;;;;;;5055221;28;20095;-71
2021/06/10 10:45:45;;;;;;;3.55;2.47;;;24.50;49.90;;;;;;5072897;28;20515;-71
2021/06/10 10:48:14;;;;;;;3.33;2.25;;;24.60;49.90;;;;;;5073036;28;20452;-73
2021/06/10 10:50:41;;;;;;;2.20;2.05;;;24.60;49.70;;;;;;5073150;28;20038;-73
2021/06/10 10:53:14;;;;;;;2.63;1.77;;;24.60;49.30;;;;;;5073216;28;20036;-73
2021/06/10 10:55:40;;;;;;;;;;;24.70;48.60;;;;;;5055582;28;20028;-73
2021/06/10 10:58:19;;;;;;;2.13;1.42;;;24.70;48.70;;;;;;5055150;28;19954;-72
2021/06/10 11:00:50;;;;;;;3.15;2.40;;;24.80;48.60;;;;;;5054894;28;20024;-72
2021/06/10 11:03:16;;;;;;;2.17;1.98;;;24.90;48.10;;;;;;5055320;28;20020;-72
2021/06/10 11:05:43;;;;;;;2.10;2.00;;;24.90;47.90;;;;;;5072964;28;20036;-73
2021/06/10 11:08:09;;;;;;;2.60;1.90;;;25.00;47.90;;;;;;5072669;28;20126;-72
2021/06/10 11:10:49;;;;;;;2.88;1.70;;;25.10;47.50;;;;;;5054926;28;20040;-72
2021/06/10 11:13:17;;;;;;;3.22;2.30;;;25.10;47.00;;;;;;5072948;28;20032;-72
2021/06/10 11:15:42;;;;;;;2.55;2.35;;;25.20;46.90;;;;;;5072809;28;20104;-72
2021/06/10 11:18:08;;;;;;;3.25;2.10;;;25.20;46.50;;;;;;5072854;28;20448;-72
2021/06/10 11:20:43;;;;;;;2.30;2.10;;;25.30;46.70;;;;;;5054673;28;20037;-74
2021/06/10 11:23:26;;;;;;;2.03;1.83;;;25.40;46.60;;;;;;5072875;28;20063;-73
2021/06/10 11:29:14;;;;;;;2.53;2.00;;;25.60;46.40;;;;;;5072896;28;20553;-72
2021/06/10 11:31:40;;;;;;;2.20;1.73;;;25.70;46.40;;;;;;5054872;28;20024;-72
2021/06/10 11:34:49;;;;;;;2.28;1.60;;;25.80;46.40;;;;;;5054853;28;20052;-72
2021/06/10 11:37:23;;;;;;;3.35;2.10;;;26.00;45.60;;;;;;4955711;28;20027;-72
2021/06/10 11:39:49;;;;;;;2.03;1.85;;;26.00;45.30;;;;;;5029666;28;20056;-72
2021/06/10 11:42:15;;;;;;;1.77;1.58;;;26.10;45.20;;;;;;5055125;28;20589;-72
2021/06/10 11:44:48;;;;;;;2.55;1.50;;;26.20;45.20;;;;;;5054541;28;20028;-72
2021/06/10 11:47:24;;;;;;;;;;;26.30;45.10;;;;;;5072902;28;20028;-72
2021/06/10 11:49:50;;;;;;;2.30;2.10;;;26.40;45.40;;;;;;5072525;28;20367;-72
2021/06/10 11:52:16;;;;;;;1.38;1.27;;;26.50;45.20;;;;;;5054335;28;20029;-72
2021/06/10 11:55:02;;;;;;;1.38;1.10;;;26.60;44.50;;;;;;5054457;28;20040;-72
2021/06/10 11:57:29;;;;;;;3.38;2.00;;;26.60;43.40;;;;;;5072500;28;20036;-73
2021/06/10 11:59:55;;;;;;;1.50;1.40;;;26.70;43.00;;;;;;5051399;28;20045;-72
2021/06/10 12:02:24;;;;;;;2.05;1.67;;;26.80;43.20;;;;;;5054430;28;20174;-72
2021/06/10 12:05:06;;;;;;;4.18;1.60;;;26.80;42.90;;;;;;5054351;28;20024;-73
2021/06/10 12:07:31;;;;;;;1.52;1.35;;;26.90;42.70;;;;;;5054169;28;20024;-73
2021/06/10 12:09:58;;;;;;;1.33;1.10;;;27.00;42.60;;;;;;5054575;28;20369;-72
2021/06/10 12:12:43;;;;;;;1.70;1.40;;;27.10;41.90;;;;;;5054227;28;20036;-73
2021/06/10 12:15:18;;;;;;;1.58;1.30;;;27.20;41.70;;;;;;5072279;28;20506;-72
2021/06/10 12:17:58;;;;;;;1.30;1.20;;;27.30;41.80;;;;;;5072242;28;20435;-72
2021/06/10 12:20:26;;;;;;;2.00;1.83;;;27.50;41.50;;;;;;5054249;28;20032;-72
2021/06/10 12:22:53;;;;;;;1.50;1.40;;;27.50;40.90;;;;;;5054122;28;20067;-72
2021/06/10 12:25:24;;;;;;;2.95;1.83;;;27.50;41.20;;;;;;5054103;28;20063;-72
2021/06/10 12:27:54;;;;;;;1.90;1.80;;;27.60;41.20;;;;;;5054148;28;20021;-72
2021/06/10 12:30:24;;;;;;;1.70;1.60;;;27.70;41.30;;;;;;5053958;28;20043;-72
2021/06/10 12:32:50;;;;;;;1.83;1.67;;;27.70;41.30;;;;;;5072042;28;20090;-72
2021/06/10 12:35:21;;;;;;;3.17;1.70;;;27.80;41.20;;;;;;5053972;28;20032;-72
2021/06/10 12:37:53;;;;;;;2.30;1.30;;;28.00;41.20;;;;;;5073143;28;20036;-72
2021/06/10 12:40:19;;;;;;;3.03;1.67;;;28.10;41.30;;;;;;5057305;28;20063;-73
2021/06/10 12:43:08;;;;;;;2.65;1.80;;;28.20;41.20;;;;;;5057323;28;20032;-74
2021/06/10 12:45:35;;;;;;;4.05;1.85;;;28.30;40.50;;;;;;5075407;28;20020;-74
2021/06/10 12:48:01;;;;;;;1.80;1.70;;;28.30;40.60;;;;;;5075501;28;20059;-74
2021/06/10 12:50:29;;;;;;;2.95;1.67;;;28.40;40.40;;;;;;5075690;28;20052;-73
2021/06/10 12:52:55;;;;;;;1.70;1.60;;;28.50;40.10;;;;;;5057434;28;20115;-74
2021/06/10 12:55:27;;;;;;;2.85;1.90;;;28.60;39.80;;;;;;5057415;28;20111;-74
2021/06/10 12:57:57;;;;;;;;;;;28.70;39.30;;;;;;5057821;28;20078;-74
2021/06/10 13:00:31;;;;;;;1.75;1.30;;;28.70;39.10;;;;;;5057118;28;19983;-73
2021/06/10 13:06:27;;;;;;;1.25;1.13;;;28.80;38.60;;;;;;5075262;28;20067;-74
2021/06/10 13:08:53;;;;;;;1.10;1.00;;;28.90;38.30;;;;;;5065689;28;20044;-74
2021/06/10 13:11:19;;;;;;;2.38;1.05;;;29.00;37.90;;;;;;5074841;28;20037;-74
2021/06/10 13:13:46;;;;;;;1.38;1.27;;;29.10;37.10;;;;;;5075006;28;20036;-74